Bangkok (Suvarnabhumi), Thailand

12:57 AM ICT on September 21, 2014 (GMT +0700)
Bangkok (Suvarnabhumi) | Change Station
CLOSE
Current Station
Airport
Location: Bangkok (Suvarnabhumi),
Elevation: 7 ft
Nearby Weather Stations

Elev 7 ft 13.36 °N, 100.98 °E | Updated 27 minutes ago

Scattered Clouds
Växlande molnighet
82 °F
Feels Like 90 °F
N
5
Vind Växlande Vind from S/SV

Idag
High -- | Low -- °F
--% Chance of Precip.
Yesterday
High -- | Low -- °F
Precip. -- tum
6:05 AM 6:13 PM
Fjärde kvarteret, 11% visible
Lufttryck 29.80 tum
Sikt 6.2 miles
Molnigt Few 2000 ft
Växlande molnighet 30000 ft
Värmeindex 90 °F
Daggpunkt 75 °F
Luftfuktighet 79%
Rainfall 0.00 tum
Snow Depth Not available.
UV 0 out of 12
Pollen Not available.
Air Quality Not available.
Flu Activity Not available.
METAR VTBS 201730Z 20004KT 9999 FEW020 SCT300 28/24 Q1009 NOSIG

More Conditions Fewer Conditions

Lufttryck 29.80 tum
Sikt 6.2 miles
Molnigt Few 2000 ft
Växlande molnighet 30000 ft
Värmeindex 90 °F
Daggpunkt 75 °F
Luftfuktighet 79%
Rainfall 0.00 tum
Snow Depth Not available.
UV 0 out of 12
Pollen Not available.
Air Quality Not available.
Flu Activity Not available.
METAR VTBS 201730Z 20004KT 9999 FEW020 SCT300 28/24 Q1009 NOSIG

More Conditions Fewer Conditions

10-Day Weather Forecast

Almanac

Astronomi

Sep. 21, 2014 Rise Set
Actual Time 6:05 AM ICT 6:13 PM ICT
Civil Twilight 5:43 AM ICT 6:34 PM ICT
Nautical Twilight 5:19 AM ICT 6:59 PM ICT
Astronomical Twilight 4:54 AM ICT 7:23 PM ICT
Månen 3:33 AM ICT (9/21) 4:13 PM ICT (9/21)
Length Of Visible Light 12h 50m
Dagens längd
12h 08m
Tomorrow will be 0m 44s shorter.
Fjärde kvarteret, 11% of the Moon is Illuminated
Sep 20
Fjärde kvarteret
Sep 24
New
Oct 1
Första kvarteret
Oct 8
Fullmåne
Oct 15
Sista kvarteret

Yesterday's Extremes

Country Highs Country Lows

Community

WunderPhotos

Upload Photos

1,754,914 photos uploaded!

Nearby

Snödjup

Not available.

Earthquake Activity

Stad Distance Mag. Time & Date
No recent earthquake activity has been reported nearby.
Minimum magnitude displayed is 2.5.

Coastal Water Temperatures

Plats Temperatur
No Stations Reporting

Nearby Weather Stations